sensor_id;sensor_type;location;lat;lon;timestamp;temperature;humidity
25550;DHT22;13444;50.562;7.262;2024-01-30T00:01:05;7.40;99.90
25550;DHT22;13444;50.562;7.262;2024-01-30T00:03:30;7.40;99.90
25550;DHT22;13444;50.562;7.262;2024-01-30T00:05:56;7.40;99.90
25550;DHT22;13444;50.562;7.262;2024-01-30T00:08:21;7.40;99.90
25550;DHT22;13444;50.562;7.262;2024-01-30T00:10:47;7.40;99.90
25550;DHT22;13444;50.562;7.262;2024-01-30T00:13:12;7.40;99.90
25550;DHT22;13444;50.562;7.262;2024-01-30T00:15:39;7.40;99.90
25550;DHT22;13444;50.562;7.262;2024-01-30T00:18:04;7.30;99.90
25550;DHT22;13444;50.562;7.262;2024-01-30T00:20:30;7.30;99.90
25550;DHT22;13444;50.562;7.262;2024-01-30T00:22:55;7.30;99.90
25550;DHT22;13444;50.562;7.262;2024-01-30T00:25:21;7.30;99.90
25550;DHT22;13444;50.562;7.262;2024-01-30T00:27:46;7.30;99.90
25550;DHT22;13444;50.562;7.262;2024-01-30T00:30:12;7.20;99.90
25550;DHT22;13444;50.562;7.262;2024-01-30T00:32:38;7.20;99.90
25550;DHT22;13444;50.562;7.262;2024-01-30T00:35:03;7.20;99.90
25550;DHT22;13444;50.562;7.262;2024-01-30T00:37:29;7.20;99.90
25550;DHT22;13444;50.562;7.262;2024-01-30T00:39:56;7.20;99.90
25550;DHT22;13444;50.562;7.262;2024-01-30T00:42:21;7.10;99.90
25550;DHT22;13444;50.562;7.262;2024-01-30T00:44:49;7.10;99.90
25550;DHT22;13444;50.562;7.262;2024-01-30T00:47:14;7.10;99.90
25550;DHT22;13444;50.562;7.262;2024-01-30T00:49:40;7.10;99.90
25550;DHT22;13444;50.562;7.262;2024-01-30T00:52:05;7.00;99.90
25550;DHT22;13444;50.562;7.262;2024-01-30T00:54:31;7.00;99.90
25550;DHT22;13444;50.562;7.262;2024-01-30T00:56:56;7.00;99.90
25550;DHT22;13444;50.562;7.262;2024-01-30T00:59:22;7.00;99.90
25550;DHT22;13444;50.562;7.262;2024-01-30T01:01:47;6.90;99.90
25550;DHT22;13444;50.562;7.262;2024-01-30T01:04:13;6.90;99.90
25550;DHT22;13444;50.562;7.262;2024-01-30T01:06:38;6.80;99.90
25550;DHT22;13444;50.562;7.262;2024-01-30T01:09:04;6.80;99.90
25550;DHT22;13444;50.562;7.262;2024-01-30T01:11:29;6.80;99.90
25550;DHT22;13444;50.562;7.262;2024-01-30T01:13:55;6.90;99.90
25550;DHT22;13444;50.562;7.262;2024-01-30T01:16:20;6.80;99.90
25550;DHT22;13444;50.562;7.262;2024-01-30T01:18:46;6.70;99.90
25550;DHT22;13444;50.562;7.262;2024-01-30T01:21:11;6.80;99.90
25550;DHT22;13444;50.562;7.262;2024-01-30T01:23:37;6.70;99.90
25550;DHT22;13444;50.562;7.262;2024-01-30T01:26:02;6.80;99.90
25550;DHT22;13444;50.562;7.262;2024-01-30T01:28:28;6.80;99.90
25550;DHT22;13444;50.562;7.262;2024-01-30T01:30:54;6.80;99.90
25550;DHT22;13444;50.562;7.262;2024-01-30T01:33:24;6.80;99.90
25550;DHT22;13444;50.562;7.262;2024-01-30T01:35:50;6.70;99.90
25550;DHT22;13444;50.562;7.262;2024-01-30T01:38:15;6.70;99.90
25550;DHT22;13444;50.562;7.262;2024-01-30T01:40:41;6.70;99.90
25550;DHT22;13444;50.562;7.262;2024-01-30T01:43:06;6.60;99.90
25550;DHT22;13444;50.562;7.262;2024-01-30T01:45:32;6.60;99.90
25550;DHT22;13444;50.562;7.262;2024-01-30T01:47:57;6.60;99.90
25550;DHT22;13444;50.562;7.262;2024-01-30T01:50:23;6.60;99.90
25550;DHT22;13444;50.562;7.262;2024-01-30T01:52:50;6.50;99.90
25550;DHT22;13444;50.562;7.262;2024-01-30T01:55:16;6.50;99.90
25550;DHT22;13444;50.562;7.262;2024-01-30T01:57:44;6.50;99.90
25550;DHT22;13444;50.562;7.262;2024-01-30T02:00:10;6.40;99.90
25550;DHT22;13444;50.562;7.262;2024-01-30T02:02:37;6.40;99.90
25550;DHT22;13444;50.562;7.262;2024-01-30T02:05:03;6.40;99.90
25550;DHT22;13444;50.562;7.262;2024-01-30T02:07:29;6.40;99.90
25550;DHT22;13444;50.562;7.262;2024-01-30T02:09:55;6.40;99.90
25550;DHT22;13444;50.562;7.262;2024-01-30T02:12:20;6.40;99.90
25550;DHT22;13444;50.562;7.262;2024-01-30T02:14:47;6.30;99.90
25550;DHT22;13444;50.562;7.262;2024-01-30T02:17:13;6.30;99.90
25550;DHT22;13444;50.562;7.262;2024-01-30T02:19:39;6.20;99.90
25550;DHT22;13444;50.562;7.262;2024-01-30T02:22:05;6.20;99.90
25550;DHT22;13444;50.562;7.262;2024-01-30T02:24:31;6.20;99.90
25550;DHT22;13444;50.562;7.262;2024-01-30T02:26:56;6.20;99.90
25550;DHT22;13444;50.562;7.262;2024-01-30T02:29:22;6.20;99.90
25550;DHT22;13444;50.562;7.262;2024-01-30T02:31:47;6.20;99.90
25550;DHT22;13444;50.562;7.262;2024-01-30T02:34:14;6.10;99.90
25550;DHT22;13444;50.562;7.262;2024-01-30T02:36:42;6.10;99.90
25550;DHT22;13444;50.562;7.262;2024-01-30T02:39:08;6.10;99.90
25550;DHT22;13444;50.562;7.262;2024-01-30T02:41:33;6.10;99.90
25550;DHT22;13444;50.562;7.262;2024-01-30T02:43:59;6.10;99.90
25550;DHT22;13444;50.562;7.262;2024-01-30T02:46:24;6.10;99.90
25550;DHT22;13444;50.562;7.262;2024-01-30T02:48:50;6.00;99.90
25550;DHT22;13444;50.562;7.262;2024-01-30T02:51:16;6.00;99.90
25550;DHT22;13444;50.562;7.262;2024-01-30T02:53:42;6.10;99.90
25550;DHT22;13444;50.562;7.262;2024-01-30T02:56:08;6.00;99.90
25550;DHT22;13444;50.562;7.262;2024-01-30T02:58:39;6.00;99.90
25550;DHT22;13444;50.562;7.262;2024-01-30T03:01:04;6.00;99.90
25550;DHT22;13444;50.562;7.262;2024-01-30T03:03:30;5.90;99.90
25550;DHT22;13444;50.562;7.262;2024-01-30T03:05:55;5.90;99.90
25550;DHT22;13444;50.562;7.262;2024-01-30T03:08:21;6.00;99.90
25550;DHT22;13444;50.562;7.262;2024-01-30T03:10:46;5.90;99.90
25550;DHT22;13444;50.562;7.262;2024-01-30T03:13:12;5.90;99.90
25550;DHT22;13444;50.562;7.262;2024-01-30T03:15:37;6.00;99.90
25550;DHT22;13444;50.562;7.262;2024-01-30T03:18:03;6.00;99.90
25550;DHT22;13444;50.562;7.262;2024-01-30T03:20:31;6.00;99.90
25550;DHT22;13444;50.562;7.262;2024-01-30T03:22:57;6.00;99.90
25550;DHT22;13444;50.562;7.262;2024-01-30T03:25:22;6.00;99.90
25550;DHT22;13444;50.562;7.262;2024-01-30T03:27:48;5.90;99.90
25550;DHT22;13444;50.562;7.262;2024-01-30T03:30:14;5.90;99.90
25550;DHT22;13444;50.562;7.262;2024-01-30T03:32:39;5.90;99.90
25550;DHT22;13444;50.562;7.262;2024-01-30T03:35:05;5.90;99.90
25550;DHT22;13444;50.562;7.262;2024-01-30T03:37:31;5.90;99.90
25550;DHT22;13444;50.562;7.262;2024-01-30T03:39:56;5.90;99.90
25550;DHT22;13444;50.562;7.262;2024-01-30T03:42:22;5.90;99.90
25550;DHT22;13444;50.562;7.262;2024-01-30T03:44:48;5.90;99.90
25550;DHT22;13444;50.562;7.262;2024-01-30T03:47:14;5.90;99.90
25550;DHT22;13444;50.562;7.262;2024-01-30T03:49:40;5.90;99.90
25550;DHT22;13444;50.562;7.262;2024-01-30T03:52:05;5.90;99.90
25550;DHT22;13444;50.562;7.262;2024-01-30T03:54:31;5.90;99.90
25550;DHT22;13444;50.562;7.262;2024-01-30T03:56:56;6.00;99.90
25550;DHT22;13444;50.562;7.262;2024-01-30T03:59:22;5.90;99.90
25550;DHT22;13444;50.562;7.262;2024-01-30T04:01:50;6.00;99.90
25550;DHT22;13444;50.562;7.262;2024-01-30T04:04:17;6.00;99.90
25550;DHT22;13444;50.562;7.262;2024-01-30T04:06:43;6.00;99.90
25550;DHT22;13444;50.562;7.262;2024-01-30T04:09:09;6.00;99.90
25550;DHT22;13444;50.562;7.262;2024-01-30T04:11:35;6.00;99.90
25550;DHT22;13444;50.562;7.262;2024-01-30T04:14:00;5.90;99.90
25550;DHT22;13444;50.562;7.262;2024-01-30T04:16:26;5.90;99.90
25550;DHT22;13444;50.562;7.262;2024-01-30T04:18:52;5.90;99.90
25550;DHT22;13444;50.562;7.262;2024-01-30T04:21:17;5.90;99.90
25550;DHT22;13444;50.562;7.262;2024-01-30T04:23:43;5.90;99.90
25550;DHT22;13444;50.562;7.262;2024-01-30T04:26:09;5.80;99.90
25550;DHT22;13444;50.562;7.262;2024-01-30T04:28:34;5.80;99.90
25550;DHT22;13444;50.562;7.262;2024-01-30T04:31:00;5.70;99.90
25550;DHT22;13444;50.562;7.262;2024-01-30T04:33:25;5.70;99.90
25550;DHT22;13444;50.562;7.262;2024-01-30T04:35:51;5.60;99.90
25550;DHT22;13444;50.562;7.262;2024-01-30T04:38:17;5.60;99.90
25550;DHT22;13444;50.562;7.262;2024-01-30T04:40:42;5.60;99.90
25550;DHT22;13444;50.562;7.262;2024-01-30T04:43:08;5.60;99.90
25550;DHT22;13444;50.562;7.262;2024-01-30T04:45:34;5.60;99.90
25550;DHT22;13444;50.562;7.262;2024-01-30T04:47:59;5.60;99.90
25550;DHT22;13444;50.562;7.262;2024-01-30T04:50:25;5.70;99.90
25550;DHT22;13444;50.562;7.262;2024-01-30T04:52:52;5.70;99.90
25550;DHT22;13444;50.562;7.262;2024-01-30T04:55:17;5.70;99.90
25550;DHT22;13444;50.562;7.262;2024-01-30T04:57:43;5.70;99.90
25550;DHT22;13444;50.562;7.262;2024-01-30T05:00:09;5.70;99.90
25550;DHT22;13444;50.562;7.262;2024-01-30T05:02:35;5.60;99.90
25550;DHT22;13444;50.562;7.262;2024-01-30T05:05:00;5.60;99.90
25550;DHT22;13444;50.562;7.262;2024-01-30T05:07:26;5.60;99.90
25550;DHT22;13444;50.562;7.262;2024-01-30T05:09:51;5.60;99.90
25550;DHT22;13444;50.562;7.262;2024-01-30T05:12:17;5.60;99.90
25550;DHT22;13444;50.562;7.262;2024-01-30T05:14:42;5.60;99.90
25550;DHT22;13444;50.562;7.262;2024-01-30T05:17:08;5.60;99.90
25550;DHT22;13444;50.562;7.262;2024-01-30T05:19:35;5.60;99.90
25550;DHT22;13444;50.562;7.262;2024-01-30T05:22:01;5.60;99.90
25550;DHT22;13444;50.562;7.262;2024-01-30T05:24:26;5.60;99.90
25550;DHT22;13444;50.562;7.262;2024-01-30T05:26:52;5.60;99.90
25550;DHT22;13444;50.562;7.262;2024-01-30T05:29:17;5.60;99.90
25550;DHT22;13444;50.562;7.262;2024-01-30T05:31:43;5.60;99.90
25550;DHT22;13444;50.562;7.262;2024-01-30T05:34:08;5.60;99.90
25550;DHT22;13444;50.562;7.262;2024-01-30T05:36:34;5.60;99.90
25550;DHT22;13444;50.562;7.262;2024-01-30T05:39:00;5.60;99.90
25550;DHT22;13444;50.562;7.262;2024-01-30T05:41:26;5.50;99.90
25550;DHT22;13444;50.562;7.262;2024-01-30T05:43:51;5.60;99.90
25550;DHT22;13444;50.562;7.262;2024-01-30T05:46:17;5.50;99.90
25550;DHT22;13444;50.562;7.262;2024-01-30T05:48:42;5.50;99.90
25550;DHT22;13444;50.562;7.262;2024-01-30T05:51:08;5.50;99.90
25550;DHT22;13444;50.562;7.262;2024-01-30T05:53:34;5.50;99.90
25550;DHT22;13444;50.562;7.262;2024-01-30T05:56:01;5.40;99.90
25550;DHT22;13444;50.562;7.262;2024-01-30T05:58:27;5.40;99.90
25550;DHT22;13444;50.562;7.262;2024-01-30T06:00:53;5.40;99.90
25550;DHT22;13444;50.562;7.262;2024-01-30T06:03:18;5.30;99.90
25550;DHT22;13444;50.562;7.262;2024-01-30T06:05:44;5.30;99.90
25550;DHT22;13444;50.562;7.262;2024-01-30T06:08:09;5.30;99.90
25550;DHT22;13444;50.562;7.262;2024-01-30T06:10:35;5.20;99.90
25550;DHT22;13444;50.562;7.262;2024-01-30T06:13:00;5.20;99.90
25550;DHT22;13444;50.562;7.262;2024-01-30T06:15:26;5.10;99.90
25550;DHT22;13444;50.562;7.262;2024-01-30T06:17:51;5.10;99.90
25550;DHT22;13444;50.562;7.262;2024-01-30T06:20:17;5.10;99.90
25550;DHT22;13444;50.562;7.262;2024-01-30T06:22:43;5.10;99.90
25550;DHT22;13444;50.562;7.262;2024-01-30T06:25:08;5.10;99.90
25550;DHT22;13444;50.562;7.262;2024-01-30T06:27:34;5.00;99.90
25550;DHT22;13444;50.562;7.262;2024-01-30T06:30:00;5.00;99.90
25550;DHT22;13444;50.562;7.262;2024-01-30T06:32:26;5.00;99.90
25550;DHT22;13444;50.562;7.262;2024-01-30T06:34:52;5.00;99.90
25550;DHT22;13444;50.562;7.262;2024-01-30T06:37:18;5.00;99.90
25550;DHT22;13444;50.562;7.262;2024-01-30T06:39:43;5.00;99.90
25550;DHT22;13444;50.562;7.262;2024-01-30T06:42:09;5.00;99.90
25550;DHT22;13444;50.562;7.262;2024-01-30T06:44:34;5.00;99.90
25550;DHT22;13444;50.562;7.262;2024-01-30T06:47:00;5.00;99.90
25550;DHT22;13444;50.562;7.262;2024-01-30T06:49:26;5.10;99.90
25550;DHT22;13444;50.562;7.262;2024-01-30T06:51:52;5.10;99.90
25550;DHT22;13444;50.562;7.262;2024-01-30T06:54:17;5.00;99.90
25550;DHT22;13444;50.562;7.262;2024-01-30T06:56:43;5.00;99.90
25550;DHT22;13444;50.562;7.262;2024-01-30T06:59:09;5.00;99.90
25550;DHT22;13444;50.562;7.262;2024-01-30T07:01:34;5.00;99.90
25550;DHT22;13444;50.562;7.262;2024-01-30T07:04:00;5.00;99.90
25550;DHT22;13444;50.562;7.262;2024-01-30T07:06:25;5.10;99.90
25550;DHT22;13444;50.562;7.262;2024-01-30T07:08:51;5.10;99.90
25550;DHT22;13444;50.562;7.262;2024-01-30T07:11:20;5.00;99.90
25550;DHT22;13444;50.562;7.262;2024-01-30T07:13:50;5.10;99.90
25550;DHT22;13444;50.562;7.262;2024-01-30T07:16:16;5.00;99.90
25550;DHT22;13444;50.562;7.262;2024-01-30T07:18:43;5.00;99.90
25550;DHT22;13444;50.562;7.262;2024-01-30T07:21:09;5.00;99.90
25550;DHT22;13444;50.562;7.262;2024-01-30T07:23:34;5.00;99.90
25550;DHT22;13444;50.562;7.262;2024-01-30T07:26:01;4.90;99.90
25550;DHT22;13444;50.562;7.262;2024-01-30T07:28:26;5.00;99.90
25550;DHT22;13444;50.562;7.262;2024-01-30T07:30:52;5.00;99.90
25550;DHT22;13444;50.562;7.262;2024-01-30T07:33:18;5.00;99.90
25550;DHT22;13444;50.562;7.262;2024-01-30T07:35:44;5.00;99.90
25550;DHT22;13444;50.562;7.262;2024-01-30T07:38:10;5.00;99.90
25550;DHT22;13444;50.562;7.262;2024-01-30T07:40:35;5.00;99.90
25550;DHT22;13444;50.562;7.262;2024-01-30T07:43:01;5.00;99.90
25550;DHT22;13444;50.562;7.262;2024-01-30T07:45:28;5.00;99.90
25550;DHT22;13444;50.562;7.262;2024-01-30T07:47:58;5.00;99.90
25550;DHT22;13444;50.562;7.262;2024-01-30T07:50:23;5.00;99.90
25550;DHT22;13444;50.562;7.262;2024-01-30T07:52:49;5.10;99.90
25550;DHT22;13444;50.562;7.262;2024-01-30T07:55:16;5.10;99.90
25550;DHT22;13444;50.562;7.262;2024-01-30T07:57:42;5.10;99.90
25550;DHT22;13444;50.562;7.262;2024-01-30T08:00:08;5.10;99.90
25550;DHT22;13444;50.562;7.262;2024-01-30T08:02:34;5.10;99.90
25550;DHT22;13444;50.562;7.262;2024-01-30T08:04:59;5.10;99.90
25550;DHT22;13444;50.562;7.262;2024-01-30T08:07:25;5.10;99.90
25550;DHT22;13444;50.562;7.262;2024-01-30T08:09:50;5.10;99.90
25550;DHT22;13444;50.562;7.262;2024-01-30T08:12:16;5.10;99.90
25550;DHT22;13444;50.562;7.262;2024-01-30T08:14:42;5.10;99.90
25550;DHT22;13444;50.562;7.262;2024-01-30T08:17:07;5.10;99.90
25550;DHT22;13444;50.562;7.262;2024-01-30T08:19:33;5.10;99.90
25550;DHT22;13444;50.562;7.262;2024-01-30T08:21:59;5.10;99.90
25550;DHT22;13444;50.562;7.262;2024-01-30T08:24:25;5.20;99.90
25550;DHT22;13444;50.562;7.262;2024-01-30T08:26:50;5.20;99.90
25550;DHT22;13444;50.562;7.262;2024-01-30T08:29:16;5.20;99.90
25550;DHT22;13444;50.562;7.262;2024-01-30T08:31:41;5.20;99.90
25550;DHT22;13444;50.562;7.262;2024-01-30T08:34:07;5.20;99.90
25550;DHT22;13444;50.562;7.262;2024-01-30T08:36:32;5.20;99.90
25550;DHT22;13444;50.562;7.262;2024-01-30T08:38:57;5.30;99.90
25550;DHT22;13444;50.562;7.262;2024-01-30T08:41:23;5.30;99.90
25550;DHT22;13444;50.562;7.262;2024-01-30T08:43:49;5.30;99.90
25550;DHT22;13444;50.562;7.262;2024-01-30T08:46:18;5.40;99.90
25550;DHT22;13444;50.562;7.262;2024-01-30T08:48:43;5.30;99.90
25550;DHT22;13444;50.562;7.262;2024-01-30T08:51:09;5.40;99.90
25550;DHT22;13444;50.562;7.262;2024-01-30T08:53:35;5.40;99.90
25550;DHT22;13444;50.562;7.262;2024-01-30T08:56:02;5.50;99.90
25550;DHT22;13444;50.562;7.262;2024-01-30T08:58:27;5.50;99.90
25550;DHT22;13444;50.562;7.262;2024-01-30T09:00:53;5.60;99.90
25550;DHT22;13444;50.562;7.262;2024-01-30T09:03:18;5.60;99.90
25550;DHT22;13444;50.562;7.262;2024-01-30T09:05:44;5.70;99.90
25550;DHT22;13444;50.562;7.262;2024-01-30T09:08:10;5.80;99.90
25550;DHT22;13444;50.562;7.262;2024-01-30T09:10:35;5.80;99.90
25550;DHT22;13444;50.562;7.262;2024-01-30T09:13:01;5.90;99.90
25550;DHT22;13444;50.562;7.262;2024-01-30T09:15:26;6.20;99.90
25550;DHT22;13444;50.562;7.262;2024-01-30T09:17:52;6.30;99.90
25550;DHT22;13444;50.562;7.262;2024-01-30T09:20:17;6.40;99.90
25550;DHT22;13444;50.562;7.262;2024-01-30T09:22:43;6.50;99.90
25550;DHT22;13444;50.562;7.262;2024-01-30T09:25:09;6.60;99.90
25550;DHT22;13444;50.562;7.262;2024-01-30T09:27:35;6.60;99.90
25550;DHT22;13444;50.562;7.262;2024-01-30T09:30:00;6.70;99.90
25550;DHT22;13444;50.562;7.262;2024-01-30T09:32:26;6.70;99.90
25550;DHT22;13444;50.562;7.262;2024-01-30T09:34:51;6.80;99.90
25550;DHT22;13444;50.562;7.262;2024-01-30T09:37:17;6.80;99.90
25550;DHT22;13444;50.562;7.262;2024-01-30T09:39:43;6.90;99.90
25550;DHT22;13444;50.562;7.262;2024-01-30T09:42:20;7.00;99.90
25550;DHT22;13444;50.562;7.262;2024-01-30T09:44:47;7.20;99.90
25550;DHT22;13444;50.562;7.262;2024-01-30T09:47:16;7.50;99.90
25550;DHT22;13444;50.562;7.262;2024-01-30T09:49:43;7.90;99.90
25550;DHT22;13444;50.562;7.262;2024-01-30T09:52:09;8.00;99.90
25550;DHT22;13444;50.562;7.262;2024-01-30T09:54:35;8.10;99.90
25550;DHT22;13444;50.562;7.262;2024-01-30T09:57:01;8.10;99.90
25550;DHT22;13444;50.562;7.262;2024-01-30T09:59:26;8.00;99.90
25550;DHT22;13444;50.562;7.262;2024-01-30T10:01:52;8.10;99.90
25550;DHT22;13444;50.562;7.262;2024-01-30T10:04:18;8.30;99.90
25550;DHT22;13444;50.562;7.262;2024-01-30T10:06:43;8.40;99.90
25550;DHT22;13444;50.562;7.262;2024-01-30T10:09:09;8.30;99.90
25550;DHT22;13444;50.562;7.262;2024-01-30T10:11:36;8.10;99.90
25550;DHT22;13444;50.562;7.262;2024-01-30T10:14:02;7.90;99.90
25550;DHT22;13444;50.562;7.262;2024-01-30T10:16:28;7.90;99.90
25550;DHT22;13444;50.562;7.262;2024-01-30T10:18:53;7.90;99.90
25550;DHT22;13444;50.562;7.262;2024-01-30T10:21:19;7.90;99.90
25550;DHT22;13444;50.562;7.262;2024-01-30T10:23:44;7.90;99.90
25550;DHT22;13444;50.562;7.262;2024-01-30T10:26:10;7.90;99.90
25550;DHT22;13444;50.562;7.262;2024-01-30T10:28:36;7.90;99.90
25550;DHT22;13444;50.562;7.262;2024-01-30T10:31:01;8.00;99.90
25550;DHT22;13444;50.562;7.262;2024-01-30T10:33:32;8.00;99.90
25550;DHT22;13444;50.562;7.262;2024-01-30T10:36:02;8.10;99.90
25550;DHT22;13444;50.562;7.262;2024-01-30T10:38:32;8.40;99.90
25550;DHT22;13444;50.562;7.262;2024-01-30T10:40:59;8.30;99.90
25550;DHT22;13444;50.562;7.262;2024-01-30T10:43:32;8.30;99.90
25550;DHT22;13444;50.562;7.262;2024-01-30T10:46:09;8.20;99.90
25550;DHT22;13444;50.562;7.262;2024-01-30T10:48:36;8.20;99.90
25550;DHT22;13444;50.562;7.262;2024-01-30T10:51:09;8.20;99.90
25550;DHT22;13444;50.562;7.262;2024-01-30T10:53:34;8.20;99.90
25550;DHT22;13444;50.562;7.262;2024-01-30T10:56:02;8.20;99.90
25550;DHT22;13444;50.562;7.262;2024-01-30T10:58:29;8.20;99.90
25550;DHT22;13444;50.562;7.262;2024-01-30T11:00:55;8.20;99.90
25550;DHT22;13444;50.562;7.262;2024-01-30T11:03:20;8.20;99.90
25550;DHT22;13444;50.562;7.262;2024-01-30T11:05:50;8.20;99.90
25550;DHT22;13444;50.562;7.262;2024-01-30T11:08:23;8.20;99.90
25550;DHT22;13444;50.562;7.262;2024-01-30T11:10:49;8.20;99.90
25550;DHT22;13444;50.562;7.262;2024-01-30T11:13:15;8.20;99.90
25550;DHT22;13444;50.562;7.262;2024-01-30T11:15:41;8.20;99.90
25550;DHT22;13444;50.562;7.262;2024-01-30T11:18:06;8.20;99.90
25550;DHT22;13444;50.562;7.262;2024-01-30T11:20:32;8.30;99.90
25550;DHT22;13444;50.562;7.262;2024-01-30T11:22:58;8.30;99.90
25550;DHT22;13444;50.562;7.262;2024-01-30T11:25:25;8.40;99.90
25550;DHT22;13444;50.562;7.262;2024-01-30T11:27:52;8.50;99.90
25550;DHT22;13444;50.562;7.262;2024-01-30T11:30:26;8.50;99.90
25550;DHT22;13444;50.562;7.262;2024-01-30T11:35:34;8.50;99.90
25550;DHT22;13444;50.562;7.262;2024-01-30T11:38:00;8.50;99.90
25550;DHT22;13444;50.562;7.262;2024-01-30T11:40:28;8.50;99.90
25550;DHT22;13444;50.562;7.262;2024-01-30T11:42:55;8.50;99.90
25550;DHT22;13444;50.562;7.262;2024-01-30T11:45:20;8.50;99.90
25550;DHT22;13444;50.562;7.262;2024-01-30T11:47:46;8.60;99.90
25550;DHT22;13444;50.562;7.262;2024-01-30T11:50:12;8.60;99.90
25550;DHT22;13444;50.562;7.262;2024-01-30T11:52:38;8.60;99.90
25550;DHT22;13444;50.562;7.262;2024-01-30T11:55:03;8.60;99.90
25550;DHT22;13444;50.562;7.262;2024-01-30T11:57:29;8.50;99.90
25550;DHT22;13444;50.562;7.262;2024-01-30T11:59:55;8.60;99.90
25550;DHT22;13444;50.562;7.262;2024-01-30T12:02:20;8.60;99.90
25550;DHT22;13444;50.562;7.262;2024-01-30T12:04:46;8.50;99.90
25550;DHT22;13444;50.562;7.262;2024-01-30T12:07:12;8.50;99.90
25550;DHT22;13444;50.562;7.262;2024-01-30T12:09:41;8.60;99.90
25550;DHT22;13444;50.562;7.262;2024-01-30T12:12:07;8.60;99.90
25550;DHT22;13444;50.562;7.262;2024-01-30T12:14:38;8.60;99.90
25550;DHT22;13444;50.562;7.262;2024-01-30T12:17:04;8.60;99.90
25550;DHT22;13444;50.562;7.262;2024-01-30T12:19:30;8.60;99.90
25550;DHT22;13444;50.562;7.262;2024-01-30T12:21:56;8.70;99.90
25550;DHT22;13444;50.562;7.262;2024-01-30T12:24:25;8.70;99.90
25550;DHT22;13444;50.562;7.262;2024-01-30T12:26:50;8.70;99.90
25550;DHT22;13444;50.562;7.262;2024-01-30T12:29:17;8.90;99.90
25550;DHT22;13444;50.562;7.262;2024-01-30T12:31:42;8.90;99.90
25550;DHT22;13444;50.562;7.262;2024-01-30T12:34:09;8.90;99.90
25550;DHT22;13444;50.562;7.262;2024-01-30T12:36:34;8.90;99.90
25550;DHT22;13444;50.562;7.262;2024-01-30T12:39:02;9.00;99.90
25550;DHT22;13444;50.562;7.262;2024-01-30T12:41:27;9.00;99.90
25550;DHT22;13444;50.562;7.262;2024-01-30T12:43:54;9.10;99.90
25550;DHT22;13444;50.562;7.262;2024-01-30T12:46:20;9.10;99.90
25550;DHT22;13444;50.562;7.262;2024-01-30T12:48:45;9.10;99.90
25550;DHT22;13444;50.562;7.262;2024-01-30T12:51:11;9.10;99.90
25550;DHT22;13444;50.562;7.262;2024-01-30T12:53:37;9.20;99.90
25550;DHT22;13444;50.562;7.262;2024-01-30T12:56:02;9.30;99.90
25550;DHT22;13444;50.562;7.262;2024-01-30T12:58:28;9.30;99.90
25550;DHT22;13444;50.562;7.262;2024-01-30T13:00:54;9.30;99.90
25550;DHT22;13444;50.562;7.262;2024-01-30T13:03:20;9.40;99.90
25550;DHT22;13444;50.562;7.262;2024-01-30T13:05:45;9.40;99.90
25550;DHT22;13444;50.562;7.262;2024-01-30T13:08:11;9.40;99.90
25550;DHT22;13444;50.562;7.262;2024-01-30T13:10:36;9.40;99.90
25550;DHT22;13444;50.562;7.262;2024-01-30T13:13:02;9.50;99.90
25550;DHT22;13444;50.562;7.262;2024-01-30T13:15:27;9.50;99.90
25550;DHT22;13444;50.562;7.262;2024-01-30T13:17:53;9.50;99.90
25550;DHT22;13444;50.562;7.262;2024-01-30T13:20:19;9.60;99.90
25550;DHT22;13444;50.562;7.262;2024-01-30T13:22:47;9.60;99.90
25550;DHT22;13444;50.562;7.262;2024-01-30T13:25:14;9.60;99.90
25550;DHT22;13444;50.562;7.262;2024-01-30T13:27:40;9.60;99.90
25550;DHT22;13444;50.562;7.262;2024-01-30T13:30:07;9.70;99.90
25550;DHT22;13444;50.562;7.262;2024-01-30T13:32:34;9.70;99.90
25550;DHT22;13444;50.562;7.262;2024-01-30T13:35:00;9.80;99.90
25550;DHT22;13444;50.562;7.262;2024-01-30T13:37:25;9.80;99.90
25550;DHT22;13444;50.562;7.262;2024-01-30T13:39:51;9.80;99.90
25550;DHT22;13444;50.562;7.262;2024-01-30T13:42:16;9.80;99.90
25550;DHT22;13444;50.562;7.262;2024-01-30T13:44:42;9.90;99.90
25550;DHT22;13444;50.562;7.262;2024-01-30T13:47:09;9.90;99.90
25550;DHT22;13444;50.562;7.262;2024-01-30T13:49:35;9.90;99.90
25550;DHT22;13444;50.562;7.262;2024-01-30T13:52:00;9.90;99.90
25550;DHT22;13444;50.562;7.262;2024-01-30T13:54:26;10.00;99.90
25550;DHT22;13444;50.562;7.262;2024-01-30T13:56:51;10.00;99.90
25550;DHT22;13444;50.562;7.262;2024-01-30T13:59:17;10.10;99.90
25550;DHT22;13444;50.562;7.262;2024-01-30T14:01:48;10.10;99.90
25550;DHT22;13444;50.562;7.262;2024-01-30T14:04:14;10.00;99.90
25550;DHT22;13444;50.562;7.262;2024-01-30T14:06:40;10.00;99.90
25550;DHT22;13444;50.562;7.262;2024-01-30T14:09:06;10.00;99.90
25550;DHT22;13444;50.562;7.262;2024-01-30T14:11:31;10.10;99.90
25550;DHT22;13444;50.562;7.262;2024-01-30T14:13:57;10.10;99.90
25550;DHT22;13444;50.562;7.262;2024-01-30T14:16:23;10.10;99.90
25550;DHT22;13444;50.562;7.262;2024-01-30T14:18:49;10.00;99.90
25550;DHT22;13444;50.562;7.262;2024-01-30T14:21:15;10.10;99.90
25550;DHT22;13444;50.562;7.262;2024-01-30T14:23:41;10.10;99.90
25550;DHT22;13444;50.562;7.262;2024-01-30T14:26:06;10.10;99.90
25550;DHT22;13444;50.562;7.262;2024-01-30T14:28:32;10.10;99.90
25550;DHT22;13444;50.562;7.262;2024-01-30T14:30:57;10.00;99.90
25550;DHT22;13444;50.562;7.262;2024-01-30T14:33:23;10.00;99.90
25550;DHT22;13444;50.562;7.262;2024-01-30T14:35:48;10.10;99.90
25550;DHT22;13444;50.562;7.262;2024-01-30T14:38:14;10.10;99.90
25550;DHT22;13444;50.562;7.262;2024-01-30T14:40:39;10.10;99.90
25550;DHT22;13444;50.562;7.262;2024-01-30T14:43:05;10.10;99.90
25550;DHT22;13444;50.562;7.262;2024-01-30T14:45:30;10.10;99.90
25550;DHT22;13444;50.562;7.262;2024-01-30T14:47:58;10.10;99.90
25550;DHT22;13444;50.562;7.262;2024-01-30T14:50:24;10.10;99.90
25550;DHT22;13444;50.562;7.262;2024-01-30T14:52:49;10.10;99.90
25550;DHT22;13444;50.562;7.262;2024-01-30T14:55:14;10.10;99.90
25550;DHT22;13444;50.562;7.262;2024-01-30T14:57:40;10.10;99.90
25550;DHT22;13444;50.562;7.262;2024-01-30T15:00:08;10.10;99.90
25550;DHT22;13444;50.562;7.262;2024-01-30T15:02:34;10.10;99.90
25550;DHT22;13444;50.562;7.262;2024-01-30T15:05:00;10.10;99.90
25550;DHT22;13444;50.562;7.262;2024-01-30T15:07:26;10.10;99.90
25550;DHT22;13444;50.562;7.262;2024-01-30T15:09:53;10.00;99.90
25550;DHT22;13444;50.562;7.262;2024-01-30T15:12:18;10.10;99.90
25550;DHT22;13444;50.562;7.262;2024-01-30T15:14:44;10.10;99.90
25550;DHT22;13444;50.562;7.262;2024-01-30T15:17:17;10.10;99.90
25550;DHT22;13444;50.562;7.262;2024-01-30T15:19:42;10.10;99.90
25550;DHT22;13444;50.562;7.262;2024-01-30T15:22:08;10.10;99.90
25550;DHT22;13444;50.562;7.262;2024-01-30T15:24:33;10.10;99.90
25550;DHT22;13444;50.562;7.262;2024-01-30T15:26:59;10.10;99.90
25550;DHT22;13444;50.562;7.262;2024-01-30T15:29:24;10.10;99.90
25550;DHT22;13444;50.562;7.262;2024-01-30T15:31:50;10.20;99.90
25550;DHT22;13444;50.562;7.262;2024-01-30T15:34:15;10.20;99.90
25550;DHT22;13444;50.562;7.262;2024-01-30T15:36:41;10.20;99.90
25550;DHT22;13444;50.562;7.262;2024-01-30T15:39:07;10.20;99.90